Time;durP1;ratioP1;P1;durP2;ratioP2;P2;SDS_P1;SDS_P2;PMS_P1;PMS_P2;Temp;Humidity;BMP_temperature;BMP_pressure;BME280_temperature;BME280_humidity;BME280_pressure;Samples;Min_cycle;Max_cycle;Signal;HPM_P1;HPM_P2
2021/12/08 08:15:42;;;;;;;;;;;;;;;5.92;80.90;97982.59;5104493;27;19993;-79
2021/12/08 08:18:10;;;;;;;;;;;;;;;4.59;87.00;97984.69;5092350;28;20089;-78
2021/12/08 08:20:35;;;;;;;;;;;;;;;;;;5091886;28;19967;-84
2021/12/08 08:25:49;;;;;;;6.20;4.97;;;;;;;;;;5052980;28;20674;-79
2021/12/08 08:28:16;;;;;;;8.80;5.80;;;;;;;;;;5041490;28;20289;-79
2021/12/08 08:30:43;;;;;;;7.90;5.25;;;;;;;;;;5041139;28;20479;-79
2021/12/08 08:33:09;;;;;;;6.10;4.55;;;;;;;;;;5042920;28;20197;-79
2021/12/08 08:35:37;;;;;;;8.57;6.23;;;;;;;;;;4992927;28;20243;-79
2021/12/08 08:38:07;;;;;;;7.53;5.55;;;;;;;;;;5046364;28;20380;-79
2021/12/08 08:40:38;;;;;;;6.10;4.28;;;;;;;;;;5010161;28;20204;-78
2021/12/08 08:43:04;;;;;;;7.95;6.35;;;;;;;;;;5034606;28;20206;-78
2021/12/08 08:45:32;;;;;;;5.50;4.47;;;;;;;;;;5024373;28;20268;-78
2021/12/08 08:48:00;;;;;;;5.20;4.47;;;;;;;;;;5025049;28;20244;-78
2021/12/08 08:50:28;;;;;;;7.25;4.88;;;;;;;;;;5025108;28;20568;-79
2021/12/08 08:52:55;;;;;;;7.40;2.85;;;;;;;;;;5027559;28;20339;-79
2021/12/08 08:55:23;;;;;;;5.60;4.43;;;;;;;;;;5061463;28;20234;-79
2021/12/08 08:57:49;;;;;;;6.55;4.72;;;;;;;;;;5064986;28;20204;-79
2021/12/08 09:00:22;;;;;;;6.50;5.10;;;;;;;;;;5063770;28;20201;-79
2021/12/08 09:02:49;;;;;;;6.40;4.90;;;;;;;;;;5061856;28;20447;-78
2021/12/08 09:05:21;;;;;;;5.25;4.50;;;;;;;;;;5054664;28;20233;-78
2021/12/08 09:07:49;;;;;;;5.20;4.70;;;;;;;;;;5064200;28;20205;-78
2021/12/08 09:10:23;;;;;;;5.75;5.15;;;;;;;;;;5060778;28;20201;-78
2021/12/08 09:12:52;;;;;;;7.18;5.63;;;;;;;;;;5062385;28;20201;-78
2021/12/08 09:15:24;;;;;;;5.13;4.63;;;;;;;;;;5062891;28;20224;-78
2021/12/08 09:17:55;;;;;;;5.47;4.55;;;;;;;;;;5060863;28;20987;-78
2021/12/08 09:20:30;;;;;;;4.63;4.05;;;;;;;;;;5062647;28;20193;-78
2021/12/08 09:22:59;;;;;;;4.13;3.63;;;;;;;;;;5062435;28;20754;-77
2021/12/08 09:25:30;;;;;;;4.53;4.13;;;;;;;;;;5063646;28;20248;-78
2021/12/08 09:27:59;;;;;;;9.27;6.45;;;;;;;;;;5062756;28;20232;-78
2021/12/08 09:30:33;;;;;;;7.97;4.55;;;;;;;;;;5062587;28;20709;-77
2021/12/08 09:33:01;;;;;;;8.13;4.45;;;;;;;;;;5061114;28;20260;-78
2021/12/08 09:35:30;;;;;;;6.03;3.85;;;;;;;;;;5052789;28;20222;-78
2021/12/08 09:37:57;;;;;;;6.68;4.10;;;;;;;;;;5050776;28;20693;-77
2021/12/08 09:40:37;;;;;;;3.40;2.55;;;;;;;;;;5047360;28;20202;-77
2021/12/08 09:43:08;;;;;;;4.47;2.67;;;;;;;;;;5041706;28;20570;-78
2021/12/08 09:45:39;;;;;;;6.25;2.67;;;;;;;;;;5042050;28;20222;-78
2021/12/08 09:48:06;;;;;;;5.38;4.55;;;;;;;;;;5048760;28;20193;-77
2021/12/08 09:50:31;;;;;;;5.20;3.92;;;;;;;;;;5047110;28;20197;-77
2021/12/08 09:52:57;;;;;;;16.13;6.87;;;;;;;;;;5051702;28;20186;-78
2021/12/08 09:55:22;;;;;;;12.37;8.13;;;;;;;;;;5050470;28;20695;-77
2021/12/08 09:57:47;;;;;;;22.03;7.30;;;;;;;;;;5037099;28;20213;-77
2021/12/08 10:00:17;;;;;;;13.10;7.20;;;;;;;;;;5050972;28;20286;-77
2021/12/08 10:02:43;;;;;;;7.60;5.53;;;;;;;;;;5051408;28;20213;-77
2021/12/08 10:05:10;;;;;;;9.07;5.67;;;;;;;;;;5048896;28;20229;-78
2021/12/08 10:07:35;;;;;;;9.23;5.20;;;;;;;;;;5046664;28;20195;-77
2021/12/08 10:10:01;;;;;;;5.77;4.17;;;;;;;;;;5030505;28;20344;-77
2021/12/08 10:12:26;;;;;;;3.90;3.30;;;;;;;;;;5030474;28;20649;-78
2021/12/08 10:14:51;;;;;;;3.30;2.77;;;;;;;;;;5043311;28;20205;-77
2021/12/08 10:19:31;;;;;;;5.07;3.25;;;;;;;5.80;86.64;97974.78;5147498;27;20537;-78
2021/12/08 10:21:58;;;;;;;6.93;3.43;;;;;;;5.79;86.46;97973.97;5127163;28;20191;-78
2021/12/08 10:24:28;;;;;;;4.63;4.18;;;;;;;5.80;86.80;97977.41;5126666;28;20199;-77
2021/12/08 10:27:04;;;;;;;3.88;3.08;;;;;;;5.82;86.85;97975.53;5109627;28;20571;-77
2021/12/08 10:29:31;;;;;;;3.85;3.55;;;;;;;5.82;86.72;97973.75;5106804;28;20215;-77
2021/12/08 10:32:00;;;;;;;3.47;3.13;;;;;;;5.83;86.70;97978.00;5106294;28;20215;-78
2021/12/08 10:34:34;;;;;;;4.05;3.75;;;;;;;5.82;86.98;97981.56;5105761;28;20196;-78
2021/12/08 10:37:01;;;;;;;6.15;5.30;;;;;;;5.84;86.85;97978.84;5106055;28;20211;-78
2021/12/08 10:39:34;;;;;;;7.43;6.68;;;;;;;5.86;86.72;97983.03;5106653;28;20615;-77
2021/12/08 10:42:18;;;;;;;8.05;6.47;;;;;;;5.88;86.72;97981.13;5106395;28;20199;-77
2021/12/08 10:44:52;;;;;;;9.35;6.60;;;;;;;5.89;86.49;97976.78;5106123;28;20580;-77
2021/12/08 10:47:21;;;;;;;5.20;4.80;;;;;;;5.91;86.67;97978.31;5106903;28;20217;-77
2021/12/08 10:55:23;;;;;;;6.55;5.90;;;;;;;5.96;86.83;97975.41;5090848;28;20269;-77
2021/12/08 10:57:53;;;;;;;8.82;6.65;;;;;;;5.97;86.94;97971.88;5106237;28;20243;-77
2021/12/08 11:00:40;;;;;;;8.10;6.93;;;;;;;5.99;86.70;97956.94;5106587;28;20191;-77
2021/12/08 11:03:11;;;;;;;5.85;5.25;;;;;;;6.03;86.89;97965.38;5105727;28;20774;-77
2021/12/08 11:05:51;;;;;;;6.18;5.20;;;;;;;6.03;86.64;97961.00;5106068;28;20238;-77
2021/12/08 11:08:21;;;;;;;5.00;4.50;;;;;;;6.05;86.75;97959.13;5106265;28;20227;-77
2021/12/08 11:10:51;;;;;;;6.00;4.35;;;;;;;6.08;86.69;97953.69;5104741;28;20211;-77
2021/12/08 11:13:21;;;;;;;4.47;3.72;;;;;;;6.09;86.53;97950.13;5096989;28;20688;-77
2021/12/08 11:15:56;;;;;;;6.63;4.53;;;;;;;6.10;86.05;97950.97;5085594;28;20224;-77
2021/12/08 11:18:23;;;;;;;6.13;4.03;;;;;;;6.14;86.29;97939.38;5093559;28;20246;-77
2021/12/08 11:21:01;;;;;;;5.45;3.75;;;;;;;6.15;86.03;97935.81;5084036;28;20633;-77
2021/12/08 11:23:41;;;;;;;5.95;4.22;;;;;;;6.18;85.66;97938.19;5063531;28;20254;-77
2021/12/08 11:26:22;;;;;;;5.38;3.63;;;;;;;6.20;85.23;97934.53;5071987;28;20219;-77
2021/12/08 11:29:02;;;;;;;3.78;3.30;;;;;;;6.22;85.41;97942.25;5082226;28;20938;-77
2021/12/08 11:31:36;;;;;;;11.77;6.65;;;;;;;6.24;85.41;97932.56;5070236;28;20232;-77
2021/12/08 11:34:05;;;;;;;9.30;5.68;;;;;;;6.27;84.87;97931.50;5070323;28;20197;-77
2021/12/08 11:36:36;;;;;;;5.55;4.47;;;;;;;6.27;85.00;97937.56;5052598;28;20217;-77
2021/12/08 11:39:10;;;;;;;8.68;6.70;;;;;;;6.27;84.49;97932.34;5053777;28;20221;-77
2021/12/08 11:41:40;;;;;;;12.93;7.03;;;;;;;6.29;84.46;97922.63;5069967;28;20205;-77
2021/12/08 11:44:18;;;;;;;7.63;5.35;;;;;;;6.27;84.51;97921.91;5070099;28;20257;-77
2021/12/08 11:46:50;;;;;;;6.80;4.75;;;;;;;6.29;84.16;97914.81;5069500;28;20235;-77
2021/12/08 11:49:16;;;;;;;18.85;10.95;;;;;;;6.31;84.15;97910.28;5069546;28;20193;-77
2021/12/08 11:51:44;;;;;;;19.67;10.63;;;;;;;6.33;83.98;97904.97;5070116;28;20197;-77
2021/12/08 11:54:33;;;;;;;15.73;9.73;;;;;;;6.33;83.82;97911.03;5069981;28;20665;-77
2021/12/08 11:57:18;;;;;;;24.00;15.45;;;;;;;6.36;83.81;97915.19;5070022;28;20220;-77
2021/12/08 11:59:56;;;;;;;35.28;19.10;;;;;;;6.36;83.58;97921.22;5050217;28;20206;-77
2021/12/08 12:02:36;;;;;;;18.65;13.60;;;;;;;6.35;83.81;97924.78;5070339;28;20219;-77
2021/12/08 12:05:09;;;;;;;17.38;11.07;;;;;;;6.33;83.56;97925.84;5052240;28;20199;-77
2021/12/08 12:07:36;;;;;;;15.50;10.15;;;;;;;6.32;84.15;97929.38;5069019;28;20392;-77
2021/12/08 12:10:01;;;;;;;11.10;7.55;;;;;;;6.32;83.62;97930.22;5069822;28;20197;-77
2021/12/08 12:12:27;;;;;;;9.30;6.73;;;;;;;6.32;83.68;97925.00;5069821;28;20211;-77
2021/12/08 12:14:53;;;;;;;7.37;6.70;;;;;;;6.33;83.74;97926.66;5069962;28;20451;-77
2021/12/08 12:17:18;;;;;;;6.90;6.20;;;;;;;6.34;83.76;97920.50;5069443;28;20680;-77
2021/12/08 12:19:52;;;;;;;7.37;4.90;;;;;;;6.35;83.69;97913.53;5069743;28;20246;-77
2021/12/08 12:22:31;;;;;;;3.65;3.35;;;;;;;6.37;83.71;97917.69;5069295;28;20596;-77
2021/12/08 12:25:13;;;;;;;3.72;2.53;;;;;;;6.40;83.19;97911.41;5068287;28;20481;-76
2021/12/08 12:27:43;;;;;;;4.03;2.22;;;;;;;6.44;83.36;97912.84;5269036;23;20786;-79
2021/12/08 12:30:32;;;;;;;3.08;2.67;;;;;;;6.46;83.08;97916.16;5045578;28;20681;-79
2021/12/08 12:32:58;;;;;;;5.88;4.75;;;;;;;6.47;82.88;97911.78;5032365;28;20212;-79
2021/12/08 12:35:30;;;;;;;3.90;3.10;;;;;;;6.48;83.05;97914.28;5050832;28;20194;-78
2021/12/08 12:38:05;;;;;;;4.57;2.85;;;;;;;6.50;83.09;97914.16;5049639;28;20298;-77
2021/12/08 12:40:37;;;;;;;4.18;2.85;;;;;;;6.52;83.20;97912.28;5049751;28;20217;-78
2021/12/08 12:43:04;;;;;;;4.45;3.22;;;;;;;6.51;82.71;97911.44;5065159;28;20228;-79
2021/12/08 12:45:42;;;;;;;5.13;2.88;;;;;;;6.50;82.69;97911.56;5070042;28;20201;-79
2021/12/08 12:48:19;;;;;;;3.63;2.38;;;;;;;6.49;82.97;97915.94;5060147;28;20414;-78
2021/12/08 12:51:07;;;;;;;2.92;2.72;;;;;;;6.48;82.51;97919.50;5050068;28;20197;-78
2021/12/08 12:53:41;;;;;;;7.63;3.28;;;;;;;6.46;82.92;97915.34;5049656;28;20284;-79
2021/12/08 12:56:18;;;;;;;6.60;3.35;;;;;;;6.43;83.05;97914.63;5050206;28;20217;-78
2021/12/08 12:58:48;;;;;;;6.53;3.85;;;;;;;6.43;83.28;97913.78;5049243;28;20252;-79
2021/12/08 13:01:30;;;;;;;5.63;3.67;;;;;;;6.43;83.06;97912.00;5049107;28;20190;-79
2021/12/08 13:04:16;;;;;;;4.60;4.15;;;;;;;6.42;83.27;97907.72;5049787;28;20665;-78
2021/12/08 13:06:45;;;;;;;4.68;3.17;;;;;;;6.41;83.00;97903.47;5050141;28;20260;-79
2021/12/08 13:09:34;;;;;;;4.88;3.25;;;;;;;6.41;83.09;97906.06;5050663;28;20225;-78
2021/12/08 13:12:12;;;;;;;5.68;5.05;;;;;;;6.40;83.11;97900.97;5059978;28;20205;-80
2021/12/08 13:14:39;;;;;;;16.63;9.27;;;;;;;6.39;83.23;97896.69;5063163;28;20201;-80
2021/12/08 13:17:17;;;;;;;12.68;8.27;;;;;;;6.36;83.74;97892.53;5071715;28;20538;-78
2021/12/08 13:19:44;;;;;;;10.50;6.38;;;;;;;6.37;83.43;97886.41;5051945;28;20669;-79
2021/12/08 13:22:45;;;;;;;13.35;6.10;;;;;;;6.37;83.29;97891.63;5050891;28;20217;-79
2021/12/08 13:28:30;;;;;;;8.30;6.45;;;;;;;6.36;83.57;97894.31;4966433;28;20313;-79
2021/12/08 13:31:12;;;;;;;12.23;7.80;;;;;;;6.37;83.94;97889.00;4990313;28;20581;-78
2021/12/08 13:33:42;;;;;;;11.18;7.15;;;;;;;6.40;83.62;97896.59;4990030;28;20203;-78
2021/12/08 13:36:19;;;;;;;9.10;6.05;;;;;;;6.41;84.15;97898.25;4990595;28;20606;-77
2021/12/08 13:38:46;;;;;;;13.40;6.18;;;;;;;6.41;83.79;97898.25;5000277;28;20652;-79
2021/12/08 13:41:16;;;;;;;9.38;6.10;;;;;;;6.43;83.51;97895.53;5009818;28;20213;-78
2021/12/08 13:43:45;;;;;;;5.20;4.70;;;;;;;6.43;83.79;97896.38;5009856;28;20198;-77
2021/12/08 13:46:31;;;;;;;7.68;5.70;;;;;;;6.45;83.96;97898.00;5007338;28;20246;-78
2021/12/08 13:49:13;;;;;;;7.38;5.70;;;;;;;6.45;83.85;97891.00;4988917;28;20217;-78
2021/12/08 13:51:38;;;;;;;7.85;6.43;;;;;;;6.43;84.33;97898.16;4990042;28;20195;-78
2021/12/08 13:54:33;;;;;;;6.20;4.30;;;;;;;6.42;84.01;97888.63;4989247;28;20218;-79
2021/12/08 13:57:01;;;;;;;6.35;5.20;;;;;;;6.39;83.86;97894.91;4989697;28;20219;-79
2021/12/08 14:00:08;;;;;;;5.20;4.70;;;;;;;6.35;84.08;97893.50;4989116;28;20564;-77
2021/12/08 14:02:39;;;;;;;7.63;6.20;;;;;;;6.32;84.35;97892.88;4996272;28;20717;-78
2021/12/08 14:05:31;;;;;;;7.80;5.10;;;;;;;6.30;84.29;97895.59;5009157;28;20195;-78
2021/12/08 14:08:04;;;;;;;8.98;5.80;;;;;;;6.27;84.30;97903.66;5008896;28;20226;-78
2021/12/08 14:10:41;;;;;;;7.68;4.55;;;;;;;6.24;84.65;97911.72;5009537;28;20244;-78
2021/12/08 14:13:09;;;;;;;6.43;4.53;;;;;;;6.22;84.39;97907.56;4992219;28;20286;-77
2021/12/08 14:15:41;;;;;;;13.63;6.07;;;;;;;6.22;84.91;97912.75;5008736;28;20199;-80
2021/12/08 14:18:13;;;;;;;5.18;4.63;;;;;;;6.21;84.76;97911.91;5009526;28;20261;-78
2021/12/08 14:20:39;;;;;;;7.60;6.40;;;;;;;6.22;84.74;97912.75;5008455;28;20278;-80
2021/12/08 14:23:04;;;;;;;10.57;5.75;;;;;;;6.23;84.70;97914.41;5009133;28;20701;-78
2021/12/08 14:25:45;;;;;;;7.77;5.60;;;;;;;6.20;84.46;97916.28;5008102;28;20219;-77
2021/12/08 14:28:49;;;;;;;12.35;7.57;;;;;;;6.20;84.74;97905.03;5009061;28;20227;-78
2021/12/08 14:31:17;;;;;;;8.77;6.15;;;;;;;6.17;84.90;97900.06;4988269;28;20687;-78
2021/12/08 14:34:28;;;;;;;9.43;5.85;;;;;;;6.17;84.84;97910.47;5008996;28;20290;-79
2021/12/08 14:36:55;;;;;;;11.23;6.82;;;;;;;6.17;84.75;97905.28;5002767;28;20230;-78
2021/12/08 14:39:35;;;;;;;6.55;5.95;;;;;;;6.18;85.08;97904.31;4990844;28;20511;-79
2021/12/08 14:42:04;;;;;;;5.85;5.07;;;;;;;6.19;84.76;97913.81;4983741;28;20218;-77
2021/12/08 14:44:34;;;;;;;7.78;5.63;;;;;;;6.18;85.18;97917.34;5006379;28;20234;-78
2021/12/08 14:47:08;;;;;;;10.23;7.25;;;;;;;6.17;84.80;97915.69;5008892;28;20277;-77
2021/12/08 14:49:36;;;;;;;8.32;7.15;;;;;;;6.17;85.03;97915.69;5007174;28;20241;-78
2021/12/08 14:52:05;;;;;;;10.80;7.00;;;;;;;6.15;85.40;97922.78;5008244;28;20214;-78
2021/12/08 14:54:39;;;;;;;10.10;6.78;;;;;;;6.13;85.21;97927.28;4995682;28;20204;-77
2021/12/08 14:57:17;;;;;;;8.25;7.55;;;;;;;6.08;85.21;97924.19;4988305;28;20703;-77
2021/12/08 14:59:54;;;;;;;6.43;5.50;;;;;;;6.06;85.64;97923.47;5004558;28;20207;-77
2021/12/08 15:02:35;;;;;;;8.63;7.72;;;;;;;6.18;85.60;97922.56;5014591;28;20487;-77
2021/12/08 15:05:05;;;;;;;8.15;6.45;;;;;;;6.11;85.36;97921.38;5028731;28;20214;-79
2021/12/08 15:07:31;;;;;;;9.15;6.20;;;;;;;6.05;85.55;97925.25;5032380;28;20280;-78
2021/12/08 15:10:06;;;;;;;8.98;6.97;;;;;;;5.99;85.95;97925.66;5031191;28;20221;-77
2021/12/08 15:12:33;;;;;;;10.43;6.07;;;;;;;5.97;85.79;97930.19;5032661;28;20205;-79
2021/12/08 15:14:59;;;;;;;7.80;6.00;;;;;;;5.97;86.07;97938.81;5032399;28;20398;-78
2021/12/08 15:17:30;;;;;;;10.90;7.30;;;;;;;5.96;86.28;97934.53;5030522;28;20222;-78
2021/12/08 15:19:57;;;;;;;16.60;7.88;;;;;;;5.96;86.40;97929.31;5031771;28;20218;-79
2021/12/08 15:22:37;;;;;;;9.15;7.40;;;;;;;5.96;86.30;97934.53;5030575;28;20206;-77
2021/12/08 15:25:21;;;;;;;8.88;7.50;;;;;;;5.95;86.46;97940.69;5030925;28;20296;-78
2021/12/08 15:27:49;;;;;;;9.43;7.72;;;;;;;5.97;86.60;97951.03;5031778;28;20260;-78
2021/12/08 15:30:16;;;;;;;7.93;6.20;;;;;;;6.00;86.16;97944.75;5033574;28;20210;-79
2021/12/08 15:32:43;;;;;;;6.70;6.07;;;;;;;5.99;86.38;97943.91;5049105;28;20340;-79
2021/12/08 15:35:13;;;;;;;13.20;6.90;;;;;;;5.97;86.27;97943.22;5041272;28;20210;-78
2021/12/08 15:37:53;;;;;;;9.48;6.95;;;;;;;5.92;86.24;97946.09;5020361;28;20221;-78
2021/12/08 15:40:27;;;;;;;7.40;6.70;;;;;;;5.90;86.29;97944.53;5030475;28;20202;-79
2021/12/08 15:42:57;;;;;;;8.10;6.03;;;;;;;5.88;86.52;97957.66;5030971;28;20203;-77
2021/12/08 15:45:23;;;;;;;9.88;7.30;;;;;;;5.88;86.40;97956.84;5031160;28;20337;-77
2021/12/08 15:47:49;;;;;;;10.00;8.07;;;;;;;5.84;86.48;97961.44;5031030;28;20214;-78
2021/12/08 15:50:32;;;;;;;9.60;8.30;;;;;;;5.80;86.44;97962.59;5012514;28;20750;-78
2021/12/08 15:53:00;;;;;;;11.02;9.50;;;;;;;5.79;86.54;97957.50;5030477;28;20210;-78
2021/12/08 15:55:30;;;;;;;20.95;11.93;;;;;;;5.76;86.65;97961.16;5030342;28;20321;-78
2021/12/08 15:58:10;;;;;;;12.82;10.07;;;;;;;5.70;87.04;97953.78;5030448;28;20317;-78
2021/12/08 16:00:40;;;;;;;12.90;8.75;;;;;;;5.64;87.10;97955.00;5026424;28;20203;-78
2021/12/08 16:03:06;;;;;;;11.55;8.95;;;;;;;5.60;87.21;97969.22;5030559;28;20750;-78
2021/12/08 16:05:32;;;;;;;12.90;7.80;;;;;;;5.55;87.51;97969.53;5024609;28;20281;-78
2021/12/08 16:07:59;;;;;;;8.17;7.40;;;;;;;5.54;87.46;97974.84;5024134;28;20297;-78
2021/12/08 16:10:30;;;;;;;9.65;7.97;;;;;;;5.55;87.77;97961.72;5020874;28;20230;-78
2021/12/08 16:12:58;;;;;;;10.65;9.55;;;;;;;5.57;87.74;97968.59;5010662;28;20203;-78
2021/12/08 16:15:35;;;;;;;8.82;7.63;;;;;;;5.55;87.57;97977.34;5024225;28;20282;-78
2021/12/08 16:18:02;;;;;;;6.57;5.20;;;;;;;5.53;87.26;97981.81;5026853;28;20741;-78
2021/12/08 16:20:29;;;;;;;7.75;5.78;;;;;;;5.53;87.41;97984.41;5030248;28;20234;-77
2021/12/08 16:22:55;;;;;;;8.70;6.20;;;;;;;5.52;87.67;97982.75;5028329;28;20202;-77
2021/12/08 16:25:21;;;;;;;8.13;6.37;;;;;;;5.54;87.67;97985.25;5029709;28;20198;-78
2021/12/08 16:27:52;;;;;;;6.72;5.32;;;;;;;5.52;87.65;97985.34;5028516;28;20245;-78
2021/12/08 16:30:18;;;;;;;6.03;5.43;;;;;;;5.52;87.73;97982.75;5029908;28;20209;-78
2021/12/08 16:32:43;;;;;;;5.23;4.70;;;;;;;5.54;87.36;97988.69;5029921;28;20198;-77
2021/12/08 16:35:08;;;;;;;6.83;5.53;;;;;;;5.54;87.59;97990.47;5031283;28;20596;-77
2021/12/08 16:37:35;;;;;;;5.60;4.80;;;;;;;5.55;87.51;97990.34;5028731;28;20214;-78
2021/12/08 16:45:27;;;;;;;7.15;6.38;;;;;;;5.52;87.24;97998.38;5030017;28;20199;-79
2021/12/08 16:47:52;;;;;;;9.57;6.22;;;;;;;5.53;87.73;97988.78;5028860;28;20210;-78
2021/12/08 16:50:22;;;;;;;7.57;6.40;;;;;;;5.49;87.66;97993.38;5028899;28;20191;-78
2021/12/08 16:52:50;;;;;;;7.75;6.95;;;;;;;5.44;87.45;97999.84;5028524;28;20635;-78
2021/12/08 16:55:16;;;;;;;7.03;5.65;;;;;;;5.41;87.57;98006.09;5029618;28;20269;-79
2021/12/08 16:57:47;;;;;;;6.13;5.43;;;;;;;5.41;87.75;98005.28;5028970;28;20283;-78
2021/12/08 17:00:15;;;;;;;8.30;6.47;;;;;;;5.41;87.52;98006.09;5029232;28;20202;-78
2021/12/08 17:02:41;;;;;;;11.57;7.90;;;;;;;5.42;87.41;98012.97;5029993;28;20299;-76
2021/12/08 17:05:07;;;;;;;17.23;13.37;;;;;;;5.42;87.67;98015.56;5030006;28;20803;-77
2021/12/08 17:07:32;;;;;;;13.90;11.60;;;;;;;5.42;87.82;98022.56;5039449;28;20222;-77
2021/12/08 17:09:57;;;;;;;16.07;9.50;;;;;;;5.39;87.59;98026.19;5029003;28;20468;-77
2021/12/08 17:12:23;;;;;;;10.00;7.90;;;;;;;5.34;87.55;98030.88;5029208;28;20277;-77
2021/12/08 17:14:49;;;;;;;7.70;6.27;;;;;;;5.30;87.58;98032.03;5028564;28;20686;-76
2021/12/08 17:17:15;;;;;;;4.87;4.47;;;;;;;5.27;87.93;98035.69;5028917;28;20463;-77
2021/12/08 17:19:40;;;;;;;6.00;5.40;;;;;;;5.24;87.59;98033.28;5028820;28;20221;-77
2021/12/08 17:22:06;;;;;;;9.03;5.63;;;;;;;5.24;87.59;98032.47;5029838;28;20206;-77
2021/12/08 17:24:35;;;;;;;8.13;6.73;;;;;;;5.23;87.61;98034.19;5030437;28;20210;-77
2021/12/08 17:27:03;;;;;;;9.48;6.30;;;;;;;5.23;87.60;98043.78;5029153;28;20635;-78
2021/12/08 17:29:28;;;;;;;6.95;5.60;;;;;;;5.20;87.86;98037.00;5028804;28;20221;-78
2021/12/08 17:31:54;;;;;;;7.60;6.80;;;;;;;5.29;87.43;98046.81;5026696;28;20476;-78
2021/12/08 17:34:19;;;;;;;10.07;5.90;;;;;;;5.27;87.26;98045.25;5028678;28;20203;-78
2021/12/08 17:36:45;;;;;;;7.30;5.97;;;;;;;5.25;87.17;98039.31;5028071;28;20218;-78
2021/12/08 17:39:12;;;;;;;13.00;8.90;;;;;;;5.22;87.61;98042.13;5028148;28;20226;-77
2021/12/08 17:41:43;;;;;;;10.18;8.80;;;;;;;5.21;87.88;98040.44;5028333;28;20241;-77
2021/12/08 17:44:09;;;;;;;14.45;11.13;;;;;;;5.17;87.36;98042.44;5026805;28;20198;-78
2021/12/08 17:46:35;;;;;;;14.70;12.15;;;;;;;5.14;87.81;98045.25;5028709;28;20218;-78
2021/12/08 17:49:02;;;;;;;9.80;8.60;;;;;;;5.12;87.83;98056.69;5027642;28;20272;-77
2021/12/08 17:51:29;;;;;;;6.85;5.40;;;;;;;5.07;87.45;98054.38;5027912;28;20217;-78
2021/12/08 17:53:56;;;;;;;6.85;5.50;;;;;;;5.00;87.48;98051.38;5026949;28;20285;-77
2021/12/08 17:56:23;;;;;;;6.22;5.63;;;;;;;4.93;87.57;98068.28;5028546;28;20225;-78
2021/12/08 17:58:49;;;;;;;6.72;4.78;;;;;;;4.88;87.72;98060.78;5035149;28;20195;-77
2021/12/08 18:01:15;;;;;;;6.30;5.70;;;;;;;4.91;87.79;98075.38;5046549;28;20485;-78
2021/12/08 18:03:41;;;;;;;6.67;5.83;;;;;;;4.88;87.73;98070.38;5011004;28;20694;-78
2021/12/08 18:06:07;;;;;;;5.88;5.25;;;;;;;4.84;87.77;98071.50;5028964;28;20468;-78
2021/12/08 18:08:35;;;;;;;6.00;5.22;;;;;;;4.82;87.73;98081.19;5029390;28;20267;-80
2021/12/08 18:11:05;;;;;;;6.13;5.53;;;;;;;4.78;88.18;98083.16;5029090;28;20249;-79
2021/12/08 18:13:32;;;;;;;5.13;4.63;;;;;;;4.76;88.17;98082.41;5028454;28;20190;-78
2021/12/08 18:15:58;;;;;;;5.50;5.00;;;;;;;4.74;88.13;98080.84;5027725;28;20204;-78
2021/12/08 18:18:24;;;;;;;7.25;5.18;;;;;;;4.71;88.18;98083.63;5027384;28;20435;-78
2021/12/08 18:20:50;;;;;;;6.83;6.10;;;;;;;4.68;88.24;98087.25;5028418;28;20341;-79
2021/12/08 18:23:15;;;;;;;6.47;5.37;;;;;;;4.68;88.32;98092.47;5028582;28;20190;-77
2021/12/08 18:25:42;;;;;;;6.30;5.77;;;;;;;4.69;88.37;98088.09;5027813;28;20448;-78
2021/12/08 18:28:10;;;;;;;9.85;5.68;;;;;;;4.72;88.37;98082.69;5027675;28;20697;-79
2021/12/08 18:30:38;;;;;;;5.90;5.07;;;;;;;4.73;88.23;98087.81;5027980;28;20197;-79
2021/12/08 18:33:04;;;;;;;7.40;6.10;;;;;;;4.76;88.17;98089.38;5028485;28;20208;-78
2021/12/08 18:35:40;;;;;;;6.17;5.60;;;;;;;4.78;88.01;98093.56;5031861;28;20682;-78
2021/12/08 18:38:07;;;;;;;7.10;6.50;;;;;;;4.80;88.00;98088.22;5027949;28;20541;-76
2021/12/08 18:40:36;;;;;;;10.60;7.38;;;;;;;4.82;88.06;98091.59;5031396;28;20471;-79
2021/12/08 18:43:03;;;;;;;9.23;7.95;;;;;;;4.82;87.95;98097.63;5032623;28;20213;-78
2021/12/08 18:45:31;;;;;;;14.00;7.45;;;;;;;4.83;88.00;98094.09;5032702;28;20218;-77
2021/12/08 18:47:57;;;;;;;10.15;7.97;;;;;;;4.84;87.98;98095.75;5031901;28;20218;-78
2021/12/08 18:50:22;;;;;;;9.03;7.50;;;;;;;4.85;87.93;98096.59;5032053;28;20213;-78
2021/12/08 18:52:48;;;;;;;11.73;7.87;;;;;;;4.86;87.69;98096.50;5031641;28;20198;-78
2021/12/08 18:55:17;;;;;;;12.00;9.93;;;;;;;4.89;87.99;98098.06;5016519;28;20289;-78
2021/12/08 18:57:43;;;;;;;15.75;11.60;;;;;;;4.90;87.83;98098.91;5041488;28;20230;-79
2021/12/08 19:00:13;;;;;;;17.77;14.10;;;;;;;4.91;88.08;98097.94;5030778;28;20206;-78
2021/12/08 19:02:40;;;;;;;19.15;14.57;;;;;;;4.92;87.70;98103.06;5031367;28;20296;-79
2021/12/08 19:05:07;;;;;;;17.00;13.95;;;;;;;4.91;87.90;98106.59;5031448;28;20200;-78
2021/12/08 19:07:37;;;;;;;21.67;16.08;;;;;;;4.92;87.88;98108.28;5013778;28;20219;-80
2021/12/08 19:10:06;;;;;;;20.52;14.73;;;;;;;4.93;87.89;98103.91;5030438;28;20202;-78
2021/12/08 19:12:32;;;;;;;23.42;17.45;;;;;;;4.93;88.13;98106.50;5031342;28;20194;-78
2021/12/08 19:14:58;;;;;;;25.38;18.25;;;;;;;4.91;87.83;98101.38;5013451;28;20225;-78
2021/12/08 19:17:24;;;;;;;21.00;14.10;;;;;;;4.92;87.94;98103.06;5031575;28;20690;-78
2021/12/08 19:19:52;;;;;;;14.50;12.83;;;;;;;4.90;87.95;98107.53;5031013;28;20327;-80
2021/12/08 19:22:18;;;;;;;17.10;12.75;;;;;;;4.87;87.69;98108.56;5046952;28;20199;-78
2021/12/08 19:24:46;;;;;;;12.20;10.13;;;;;;;4.86;87.87;98113.84;5030446;28;20245;-79
2021/12/08 19:27:11;;;;;;;13.05;11.75;;;;;;;4.84;88.00;98107.94;5030409;28;20475;-79
2021/12/08 19:29:38;;;;;;;15.07;11.13;;;;;;;4.82;87.89;98112.38;5031064;28;20293;-79
2021/12/08 19:32:04;;;;;;;28.27;16.20;;;;;;;4.79;87.69;98113.41;5030459;28;20198;-78
2021/12/08 19:34:31;;;;;;;26.57;19.13;;;;;;;4.77;87.90;98117.88;5031220;28;20218;-80
2021/12/08 19:36:57;;;;;;;28.10;19.58;;;;;;;4.75;88.09;98116.31;5031091;28;20541;-79
2021/12/08 19:39:23;;;;;;;28.00;19.20;;;;;;;4.76;88.13;98118.81;5013531;28;20741;-78
2021/12/08 19:41:49;;;;;;;28.25;20.50;;;;;;;4.76;88.33;98124.03;5030556;28;20205;-79
2021/12/08 19:44:14;;;;;;;32.73;21.40;;;;;;;4.76;88.23;98118.00;5029668;28;20194;-79
2021/12/08 19:46:41;;;;;;;24.63;20.70;;;;;;;4.73;88.17;98118.19;5030638;28;20263;-79
2021/12/08 19:49:07;;;;;;;26.73;18.40;;;;;;;4.69;87.88;98122.72;5030547;28;20198;-79
2021/12/08 19:51:32;;;;;;;23.67;17.70;;;;;;;4.65;87.73;98127.31;5029273;28;20200;-78
2021/12/08 19:53:58;;;;;;;22.03;18.03;;;;;;;4.64;88.23;98127.38;5029576;28;20432;-78
2021/12/08 19:56:24;;;;;;;25.63;18.80;;;;;;;4.61;88.45;98131.00;5012715;28;20250;-78
2021/12/08 19:58:50;;;;;;;20.97;17.40;;;;;;;4.59;88.20;98130.31;5029729;28;20641;-79
2021/12/08 20:01:18;;;;;;;23.83;18.10;;;;;;;4.60;88.33;98142.34;5030302;28;20695;-78
2021/12/08 20:03:46;;;;;;;26.95;18.13;;;;;;;4.60;88.39;98129.34;5030087;28;20190;-78
2021/12/08 20:06:12;;;;;;;30.52;19.70;;;;;;;4.60;88.28;98131.97;5029001;28;20218;-78
2021/12/08 20:08:38;;;;;;;24.92;19.27;;;;;;;4.59;88.35;98135.50;5029375;28;20410;-78
2021/12/08 20:11:05;;;;;;;26.37;18.43;;;;;;;4.58;88.56;98140.78;5029658;28;20670;-77
2021/12/08 20:13:30;;;;;;;32.80;20.98;;;;;;;4.57;88.06;98139.13;5029925;28;20438;-79
2021/12/08 20:15:57;;;;;;;32.73;18.07;;;;;;;4.58;88.17;98144.22;5029715;28;20202;-78
2021/12/08 20:18:24;;;;;;;25.40;18.55;;;;;;;4.57;88.13;98139.97;5031083;28;20222;-80
2021/12/08 20:20:52;;;;;;;26.30;17.65;;;;;;;4.57;88.32;98142.56;5012798;28;20194;-78
2021/12/08 20:23:20;;;;;;;27.75;18.95;;;;;;;4.55;88.25;98143.59;5030390;28;20206;-78
2021/12/08 20:25:46;;;;;;;25.20;18.95;;;;;;;4.49;88.20;98143.97;5030830;28;20651;-77
2021/12/08 20:28:15;;;;;;;21.83;17.40;;;;;;;4.43;88.23;98153.81;5031459;28;20305;-78
2021/12/08 20:30:42;;;;;;;16.30;11.63;;;;;;;4.36;88.39;98159.50;5032337;28;20205;-79
2021/12/08 20:33:08;;;;;;;13.82;9.82;;;;;;;4.27;88.47;98162.66;5045035;28;20199;-79
2021/12/08 20:35:34;;;;;;;12.35;11.00;;;;;;;4.20;88.37;98172.56;5038223;28;20205;-79
2021/12/08 20:38:04;;;;;;;14.80;10.57;;;;;;;4.11;88.49;98173.16;5031302;28;20219;-77
2021/12/08 20:40:30;;;;;;;14.80;12.10;;;;;;;4.07;88.86;98171.66;5013808;28;20448;-78
2021/12/08 20:42:58;;;;;;;12.95;11.65;;;;;;;4.05;88.61;98174.34;5025184;28;20198;-78
2021/12/08 20:45:28;;;;;;;12.93;10.57;;;;;;;4.05;88.77;98173.50;5021053;28;20225;-78
2021/12/08 20:47:53;;;;;;;15.15;13.35;;;;;;;4.05;88.48;98170.91;5021523;28;20218;-78
2021/12/08 20:50:20;;;;;;;15.63;14.13;;;;;;;4.04;88.82;98177.03;5019787;28;20256;-78